createdAt,value
2018-01-10T00:00:45.835Z,36.97
2018-01-10T00:03:14.063Z,28.45
2018-01-10T00:05:42.082Z,51.70
2018-01-10T00:08:10.602Z,26.75
2018-01-10T00:10:39.847Z,129.52
2018-01-10T00:13:20.438Z,137.75
2018-01-10T00:15:49.842Z,30.15
2018-01-10T00:18:18.646Z,52.53
2018-01-10T00:20:48.998Z,53.50
2018-01-10T00:23:18.330Z,25.42
2018-01-10T00:25:54.850Z,42.83
2018-01-10T00:28:23.314Z,28.98
2018-01-10T00:30:51.375Z,28.95
2018-01-10T00:33:25.025Z,53.42
2018-01-10T00:35:54.998Z,38.80
2018-01-10T00:38:29.418Z,32.47
2018-01-10T00:41:06.790Z,29.80
2018-01-10T00:43:35.758Z,35.67
2018-01-10T00:46:07.339Z,31.45
2018-01-10T00:48:38.462Z,34.10
2018-01-10T00:51:08.494Z,31.33
2018-01-10T00:53:43.926Z,34.97
2018-01-10T00:56:12.854Z,28.25
2018-01-10T00:58:53.034Z,35.03
2018-01-10T01:01:25.965Z,32.00
2018-01-10T01:03:53.996Z,25.48
2018-01-10T01:06:28.126Z,24.20
2018-01-10T01:09:02.162Z,33.25
2018-01-10T01:11:36.610Z,38.40
2018-01-10T01:14:06.574Z,41.22
2018-01-10T01:16:35.538Z,33.45
2018-01-10T01:19:04.490Z,35.35
2018-01-10T01:21:41.710Z,29.67
2018-01-10T01:24:15.562Z,33.45
2018-01-10T01:26:49.658Z,25.83
2018-01-10T01:29:23.006Z,29.77
2018-01-10T01:31:51.050Z,27.85
2018-01-10T01:34:26.818Z,30.85
2018-01-10T01:36:55.613Z,30.58
2018-01-10T01:39:27.622Z,28.87
2018-01-10T01:41:55.718Z,29.58
2018-01-10T01:44:23.749Z,35.35
2018-01-10T01:46:52.766Z,32.63
2018-01-10T01:49:23.809Z,33.25
2018-01-10T01:51:51.822Z,31.90
2018-01-10T01:54:19.901Z,42.88
2018-01-10T01:56:47.918Z,31.60
2018-01-10T01:59:19.589Z,37.50
2018-01-10T02:01:48.398Z,31.10
2018-01-10T02:04:16.421Z,36.13
2018-01-10T02:06:45.425Z,34.92
2018-01-10T02:09:16.994Z,31.95
2018-01-10T02:11:45.058Z,31.35
2018-01-10T02:14:18.758Z,38.22
2018-01-10T02:16:46.762Z,32.15
2018-01-10T02:19:16.761Z,34.08
2018-01-10T02:21:48.914Z,39.00
2018-01-10T02:24:17.849Z,31.60
2018-01-10T02:26:45.954Z,30.25
2018-01-10T02:29:18.438Z,34.83
2018-01-10T02:31:51.517Z,30.65
2018-01-10T02:34:19.614Z,32.17
2018-01-10T02:36:51.906Z,32.38
2018-01-10T02:39:27.901Z,31.62
2018-01-10T02:41:57.822Z,40.78
2018-01-10T02:44:27.985Z,33.65
2018-01-10T02:47:03.958Z,29.87
2018-01-10T02:49:32.927Z,32.13
2018-01-10T02:52:02.615Z,30.65
2018-01-10T02:54:30.641Z,31.00
2018-01-10T02:57:04.281Z,30.73
2018-01-10T02:59:34.223Z,32.63
2018-01-10T03:02:06.573Z,33.80
2018-01-10T03:04:35.545Z,34.85
2018-01-10T03:07:04.554Z,27.55
2018-01-10T03:09:33.589Z,34.58
2018-01-10T03:12:02.549Z,58.28
2018-01-10T03:14:31.522Z,62.17
2018-01-10T03:16:59.542Z,39.60
2018-01-10T03:19:27.605Z,37.28
2018-01-10T03:21:58.425Z,24.08
2018-01-10T03:24:27.257Z,29.00
2018-01-10T03:26:56.280Z,20.00
2018-01-10T03:32:19.373Z,33.33
2018-01-10T03:34:49.341Z,43.40
2018-01-10T03:37:21.945Z,21.50
2018-01-10T03:39:51.969Z,25.50
2018-01-10T03:42:20.969Z,21.67
2018-01-10T03:44:55.577Z,19.80
2018-01-10T03:47:33.625Z,21.62
2018-01-10T03:50:09.845Z,22.10
2018-01-10T03:52:49.657Z,32.22
2018-01-10T03:55:32.593Z,28.12
2018-01-10T03:58:00.617Z,23.67
2018-01-10T04:00:29.521Z,25.10
2018-01-10T04:02:58.465Z,27.30
2018-01-10T04:08:20.526Z,28.95
2018-01-10T04:10:52.906Z,20.75
2018-01-10T04:13:23.641Z,26.90
2018-01-10T04:15:51.681Z,26.65
2018-01-10T04:18:22.829Z,22.65
2018-01-10T04:21:06.197Z,24.00
2018-01-10T04:23:43.449Z,23.25
2018-01-10T04:26:15.921Z,32.92
2018-01-10T04:28:44.929Z,29.33
2018-01-10T04:31:32.193Z,92.57
2018-01-10T04:34:17.841Z,54.47
2018-01-10T04:36:46.633Z,171.35
2018-01-10T04:39:18.801Z,42.47
2018-01-10T04:41:48.537Z,49.67
2018-01-10T04:44:27.893Z,32.38
2018-01-10T04:46:55.973Z,38.42
2018-01-10T04:49:25.025Z,39.40
2018-01-10T04:51:54.016Z,25.80
2018-01-10T04:54:26.901Z,26.65
2018-01-10T04:57:09.141Z,27.98
2018-01-10T04:59:39.066Z,28.17
2018-01-10T05:02:07.094Z,50.03
2018-01-10T05:04:38.585Z,64.93
2018-01-10T05:07:06.789Z,90.38
2018-01-10T05:09:38.997Z,28.65
2018-01-10T05:12:07.025Z,64.93
2018-01-10T05:14:37.805Z,41.20
2018-01-10T05:17:05.833Z,89.03
2018-01-10T05:19:34.857Z,122.15
2018-01-10T05:25:02.477Z,185.25
2018-01-10T05:27:37.005Z,37.85
2018-01-10T05:30:05.045Z,30.85
2018-01-10T05:32:35.005Z,30.12
2018-01-10T05:35:03.813Z,27.13
2018-01-10T05:37:37.073Z,30.73
2018-01-10T05:40:05.145Z,25.48
2018-01-10T05:42:34.142Z,34.10
2018-01-10T05:45:07.789Z,28.55
2018-01-10T05:47:49.656Z,30.40
2018-01-10T05:50:18.488Z,29.45
2018-01-10T05:52:48.160Z,29.65
2018-01-10T05:55:17.112Z,36.40
2018-01-10T05:57:47.188Z,40.20
2018-01-10T06:00:15.224Z,32.05
2018-01-10T06:02:46.952Z,47.05
2018-01-10T06:05:16.688Z,37.85
2018-01-10T06:07:45.480Z,30.73
2018-01-10T06:13:26.551Z,30.02
2018-01-10T06:15:54.560Z,34.90
2018-01-10T06:18:24.528Z,39.22
2018-01-10T06:20:53.512Z,40.55
2018-01-10T06:23:25.296Z,35.70
2018-01-10T06:25:53.340Z,40.20
2018-01-10T06:28:25.988Z,40.22
2018-01-10T06:30:54.020Z,46.42
2018-01-10T06:36:20.164Z,36.08
2018-01-10T06:38:50.088Z,36.28
2018-01-10T06:41:18.100Z,34.20
2018-01-10T06:43:47.136Z,31.67
2018-01-10T06:49:11.128Z,27.13
2018-01-10T06:51:52.796Z,27.83
2018-01-10T06:54:27.444Z,30.33
2018-01-10T06:56:55.455Z,26.70
2018-01-10T06:59:34.012Z,26.15
2018-01-10T07:02:03.072Z,26.90
2018-01-10T07:04:33.072Z,22.70
2018-01-10T07:07:03.045Z,23.30
2018-01-10T07:09:38.815Z,21.05
2018-01-10T07:12:12.484Z,24.58
2018-01-10T07:14:40.530Z,25.73
2018-01-10T07:17:09.480Z,27.75
2018-01-10T07:19:38.292Z,23.25
2018-01-10T07:22:08.710Z,28.27
2018-01-10T07:24:53.792Z,26.85
2018-01-10T07:27:21.868Z,20.77
2018-01-10T07:29:49.896Z,26.37
2018-01-10T07:32:18.676Z,24.87
2018-01-10T07:34:53.291Z,23.35
2018-01-10T07:37:21.311Z,19.95
2018-01-10T07:39:52.639Z,25.67
2018-01-10T07:42:21.470Z,24.55
2018-01-10T07:44:49.483Z,20.52
2018-01-10T07:47:33.164Z,23.27
2018-01-10T07:50:08.852Z,26.40
2018-01-10T07:52:46.743Z,29.10
2018-01-10T07:55:22.747Z,21.10
2018-01-10T07:57:54.100Z,26.05
2018-01-10T08:00:22.151Z,22.35
2018-01-10T08:02:54.051Z,29.52
2018-01-10T08:05:23.983Z,41.20
2018-01-10T08:07:57.731Z,32.35
2018-01-10T08:10:51.999Z,29.10
2018-01-10T08:16:31.899Z,33.17
2018-01-10T08:18:59.939Z,25.05
2018-01-10T08:21:31.175Z,25.48
2018-01-10T08:23:59.195Z,32.25
2018-01-10T08:26:27.239Z,23.85
2018-01-10T08:28:59.347Z,25.23
2018-01-10T08:31:28.360Z,25.45
2018-01-10T08:33:56.443Z,50.75
2018-01-10T08:36:29.496Z,25.27
2018-01-10T08:39:05.263Z,22.77
2018-01-10T08:41:34.271Z,26.40
2018-01-10T08:44:02.283Z,27.20
2018-01-10T08:46:34.958Z,23.25
2018-01-10T08:49:04.715Z,22.23
2018-01-10T08:51:34.800Z,21.30
2018-01-10T08:54:16.799Z,20.23
2018-01-10T08:56:44.835Z,20.45
2018-01-10T08:59:34.819Z,22.10
2018-01-10T09:02:02.896Z,22.77
2018-01-10T09:04:33.715Z,25.40
2018-01-10T09:07:04.488Z,25.98
2018-01-10T09:09:32.540Z,24.77
2018-01-10T09:12:03.256Z,26.10
2018-01-10T09:14:32.043Z,28.00
2018-01-10T09:17:04.602Z,26.10
2018-01-10T09:19:49.164Z,36.92
2018-01-10T09:22:17.135Z,23.80
2018-01-10T09:24:48.935Z,21.98
2018-01-10T09:27:17.915Z,21.70
2018-01-10T09:29:52.919Z,25.00
2018-01-10T09:32:21.922Z,21.23
2018-01-10T09:34:52.855Z,22.55
2018-01-10T09:37:21.823Z,21.58
2018-01-10T09:40:02.291Z,22.85
2018-01-10T09:42:30.325Z,20.58
2018-01-10T09:45:01.475Z,20.35
2018-01-10T09:47:38.247Z,21.87
2018-01-10T09:50:06.287Z,23.15
2018-01-10T09:52:35.063Z,23.63
2018-01-10T09:55:16.379Z,18.40
2018-01-10T09:57:44.479Z,15.43
2018-01-10T10:00:12.507Z,19.33
2018-01-10T10:02:40.546Z,16.23
2018-01-10T10:05:13.407Z,15.50
2018-01-10T10:07:47.659Z,14.87
2018-01-10T10:10:21.096Z,16.27
2018-01-10T10:12:49.275Z,16.30
2018-01-10T10:15:18.179Z,16.43
2018-01-10T10:17:47.151Z,16.60
2018-01-10T10:20:18.399Z,15.80
2018-01-10T10:22:46.433Z,14.60
2018-01-10T10:25:17.123Z,15.43
2018-01-10T10:27:45.192Z,14.73
2018-01-10T10:30:20.009Z,16.40
2018-01-10T10:32:50.035Z,15.00
2018-01-10T10:35:19.207Z,15.23
2018-01-10T10:37:48.219Z,15.53
2018-01-10T10:40:18.286Z,17.63
2018-01-10T10:42:47.163Z,16.03
2018-01-10T10:45:15.423Z,15.60
2018-01-10T10:47:43.423Z,19.13
2018-01-10T10:50:16.261Z,15.07
2018-01-10T10:52:46.199Z,16.67
2018-01-10T10:55:16.123Z,15.40
2018-01-10T10:57:44.938Z,15.93
2018-01-10T11:00:16.667Z,14.63
2018-01-10T11:02:50.035Z,15.73
2018-01-10T11:05:22.019Z,18.00
2018-01-10T11:07:52.775Z,16.77
2018-01-10T11:10:20.798Z,14.47
2018-01-10T11:12:49.714Z,17.87
2018-01-10T11:15:20.422Z,14.10
2018-01-10T11:17:51.582Z,15.60
2018-01-10T11:20:21.518Z,17.27
2018-01-10T11:22:50.527Z,18.70
2018-01-10T11:25:18.535Z,16.30
2018-01-10T11:27:50.510Z,16.87
2018-01-10T11:30:18.590Z,17.27
2018-01-10T11:32:48.539Z,14.83
2018-01-10T11:35:18.538Z,15.03
2018-01-10T11:37:47.501Z,14.33
2018-01-10T11:40:15.518Z,16.47
2018-01-10T11:42:43.534Z,15.40
2018-01-10T11:45:12.550Z,17.10
2018-01-10T11:47:41.465Z,14.07
2018-01-10T11:50:09.490Z,14.43
2018-01-10T11:52:47.583Z,12.93
2018-01-10T11:55:19.327Z,14.17
2018-01-10T11:57:53.134Z,13.03
2018-01-10T12:00:21.242Z,13.00
2018-01-10T12:02:50.210Z,15.93
2018-01-10T12:05:18.454Z,12.63
2018-01-10T12:07:50.183Z,14.17
2018-01-10T12:10:18.983Z,13.60
2018-01-10T12:12:47.030Z,13.07
2018-01-10T12:15:17.746Z,15.73
2018-01-10T12:17:45.766Z,12.93
2018-01-10T12:20:15.682Z,14.00
2018-01-10T12:22:43.693Z,15.57
2018-01-10T12:25:17.654Z,12.97
2018-01-10T12:27:45.658Z,13.13
2018-01-10T12:30:17.210Z,12.30
2018-01-10T12:32:46.202Z,10.90
2018-01-10T12:35:18.780Z,14.83
2018-01-10T12:37:46.794Z,10.33
2018-01-10T12:40:15.579Z,10.60
2018-01-10T12:42:47.710Z,15.23
2018-01-10T12:45:18.369Z,13.07
2018-01-10T12:47:47.146Z,12.13
2018-01-10T12:50:16.110Z,11.47
2018-01-10T12:52:44.150Z,16.93
2018-01-10T12:55:12.957Z,13.20
2018-01-10T12:57:41.973Z,13.83
2018-01-10T13:00:11.897Z,11.30
2018-01-10T13:02:42.978Z,13.57
2018-01-10T13:05:11.010Z,12.30
2018-01-10T13:07:42.042Z,14.07
2018-01-10T13:10:10.098Z,12.80
2018-01-10T13:12:46.382Z,11.93
2018-01-10T13:15:18.786Z,10.67
2018-01-10T13:17:46.819Z,12.73
2018-01-10T13:20:15.806Z,13.53
2018-01-10T13:22:51.322Z,13.07
2018-01-10T13:25:21.263Z,19.40
2018-01-10T13:27:52.706Z,14.43
2018-01-10T13:30:24.558Z,11.83
2018-01-10T13:32:52.594Z,15.70
2018-01-10T13:35:20.606Z,13.20
2018-01-10T13:37:48.620Z,13.87
2018-01-10T13:40:18.327Z,17.30
2018-01-10T13:42:51.682Z,14.23
2018-01-10T13:45:23.534Z,13.97
2018-01-10T13:47:51.566Z,15.27
2018-01-10T13:50:19.586Z,17.93
2018-01-10T13:52:48.574Z,13.10
2018-01-10T13:55:16.598Z,12.90
2018-01-10T13:57:44.613Z,13.10
2018-01-10T14:00:12.634Z,13.30
2018-01-10T14:02:44.261Z,19.90
2018-01-10T14:05:14.050Z,15.03
2018-01-10T14:07:44.081Z,13.97
2018-01-10T14:10:13.062Z,15.13
2018-01-10T14:12:41.089Z,17.97
2018-01-10T14:15:10.762Z,18.20
2018-01-10T14:17:41.449Z,13.87
2018-01-10T14:20:11.498Z,19.17
2018-01-10T14:22:42.293Z,17.93
2018-01-10T14:25:13.892Z,14.57
2018-01-10T14:27:42.682Z,14.45
2018-01-10T14:30:12.482Z,17.73
2018-01-10T14:32:43.725Z,15.77
2018-01-10T14:35:16.297Z,15.57
2018-01-10T14:37:50.804Z,16.60
2018-01-10T14:40:18.802Z,17.30
2018-01-10T14:42:47.778Z,16.77
2018-01-10T14:45:15.806Z,16.52
2018-01-10T14:47:43.833Z,19.93
2018-01-10T14:50:12.820Z,22.97
2018-01-10T14:52:41.801Z,17.58
2018-01-10T14:55:16.849Z,20.23
2018-01-10T14:57:46.779Z,23.10
2018-01-10T15:00:17.473Z,23.23
2018-01-10T15:02:50.050Z,22.98
2018-01-10T15:05:23.789Z,28.33
2018-01-10T15:07:52.571Z,29.90
2018-01-10T15:10:20.610Z,28.80
2018-01-10T15:12:49.407Z,27.60
2018-01-10T15:18:11.049Z,25.15
2018-01-10T15:20:39.058Z,24.12
2018-01-10T15:23:07.082Z,27.00
2018-01-10T15:25:42.369Z,27.15
2018-01-10T15:28:11.317Z,28.50
2018-01-10T15:30:39.337Z,33.42
2018-01-10T15:33:09.245Z,29.08
2018-01-10T15:35:38.102Z,32.47
2018-01-10T15:38:11.378Z,40.67
2018-01-10T15:40:41.393Z,26.62
2018-01-10T15:43:11.533Z,24.83
2018-01-10T15:45:39.546Z,27.33
2018-01-10T15:48:17.481Z,18.08
2018-01-10T15:50:46.473Z,15.55
2018-01-10T15:53:19.942Z,18.52
2018-01-10T15:55:50.885Z,19.30
2018-01-10T15:58:18.897Z,15.07
2018-01-10T16:00:48.277Z,16.75
2018-01-10T16:03:17.282Z,16.92
2018-01-10T16:05:45.301Z,16.00
2018-01-10T16:08:15.251Z,17.40
2018-01-10T16:10:43.276Z,14.75
2018-01-10T16:13:12.064Z,16.17
2018-01-10T16:15:45.465Z,17.77
2018-01-10T16:18:13.473Z,18.33
2018-01-10T16:20:44.837Z,18.80
2018-01-10T16:23:16.793Z,14.85
2018-01-10T16:25:44.801Z,19.37
2018-01-10T16:28:13.580Z,16.40
2018-01-10T16:30:42.365Z,25.92
2018-01-10T16:33:12.137Z,18.10
2018-01-10T16:35:41.034Z,16.58
2018-01-10T16:38:09.045Z,15.38
2018-01-10T16:40:37.829Z,15.20
2018-01-10T16:43:07.625Z,19.02
2018-01-10T16:45:36.605Z,15.63
2018-01-10T16:48:11.854Z,14.75
2018-01-10T16:50:50.017Z,14.60
2018-01-10T16:53:18.029Z,15.00
2018-01-10T16:55:50.409Z,15.05
2018-01-10T16:58:18.438Z,15.25
2018-01-10T17:00:51.733Z,15.38
2018-01-10T17:03:20.669Z,16.33
2018-01-10T17:05:50.450Z,16.17
2018-01-10T17:08:18.461Z,13.45
2018-01-10T17:10:50.389Z,14.32
2018-01-10T17:13:20.396Z,14.15
2018-01-10T17:15:51.873Z,19.25
2018-01-10T17:18:20.890Z,12.15
2018-01-10T17:20:50.565Z,14.10
2018-01-10T17:23:18.625Z,13.20
2018-01-10T17:25:46.693Z,14.23
2018-01-10T17:28:14.705Z,9.85
2018-01-10T17:30:50.709Z,15.90
2018-01-10T17:33:18.753Z,12.25
2018-01-10T17:35:46.819Z,12.40
2018-01-10T17:38:14.841Z,13.35
2018-01-10T17:40:44.789Z,13.70
2018-01-10T17:43:13.590Z,13.00
2018-01-10T17:45:42.353Z,11.38
2018-01-10T17:48:12.353Z,13.30
2018-01-10T17:50:41.450Z,11.43
2018-01-10T17:53:13.109Z,9.88
2018-01-10T17:55:47.633Z,9.75
2018-01-10T17:58:16.421Z,11.95
2018-01-10T18:00:45.417Z,9.70
2018-01-10T18:03:15.133Z,11.18
2018-01-10T18:05:48.829Z,12.52
2018-01-10T18:08:22.001Z,12.20
2018-01-10T18:10:50.037Z,13.05
2018-01-10T18:13:18.117Z,12.63
2018-01-10T18:15:46.140Z,11.25
2018-01-10T18:18:16.825Z,13.15
2018-01-10T18:20:44.888Z,12.37
2018-01-10T18:23:14.813Z,10.45
2018-01-10T18:25:43.720Z,13.85
2018-01-10T18:28:13.725Z,13.48
2018-01-10T18:30:41.737Z,12.00
2018-01-10T18:33:11.553Z,12.85
2018-01-10T18:35:40.320Z,12.80
2018-01-10T18:38:26.691Z,35.17
2018-01-10T18:40:54.672Z,15.98
2018-01-10T18:43:22.693Z,12.75
2018-01-10T18:45:50.764Z,17.75
2018-01-10T18:48:19.201Z,19.02
2018-01-10T18:50:47.224Z,18.30
2018-01-10T18:53:16.257Z,18.50
2018-01-10T18:55:44.256Z,16.80
2018-01-10T18:58:12.324Z,16.35
2018-01-10T19:00:45.792Z,13.93
2018-01-10T19:03:13.808Z,17.67
2018-01-10T19:05:44.608Z,16.83
2018-01-10T19:08:13.482Z,21.10
2018-01-10T19:10:42.460Z,22.08
2018-01-10T19:13:10.496Z,20.17
2018-01-10T19:15:43.960Z,18.30
2018-01-10T19:18:12.741Z,19.33
2018-01-10T19:20:41.528Z,21.55
2018-01-10T19:23:09.564Z,22.50
2018-01-10T19:25:41.552Z,21.95
2018-01-10T19:28:09.564Z,21.73
2018-01-10T19:30:37.616Z,20.73
2018-01-10T19:33:05.636Z,23.42
2018-01-10T19:35:33.644Z,25.50
2018-01-10T19:38:12.128Z,21.42
2018-01-10T19:40:47.416Z,22.45
2018-01-10T19:43:15.436Z,25.73
2018-01-10T19:45:49.928Z,24.40
2018-01-10T19:48:20.984Z,21.98
2018-01-10T19:50:49.036Z,22.25
2018-01-10T19:53:17.072Z,23.80
2018-01-10T19:55:45.100Z,25.15
2018-01-10T19:58:17.288Z,22.87
2018-01-10T20:00:45.308Z,24.85
2018-01-10T20:03:14.232Z,25.70
2018-01-10T20:05:45.859Z,29.67
2018-01-10T20:08:14.784Z,27.55
2018-01-10T20:10:42.798Z,23.80
2018-01-10T20:13:10.864Z,26.27
2018-01-10T20:15:39.644Z,23.80
2018-01-10T20:18:09.420Z,26.48
2018-01-10T20:20:38.416Z,24.55
2018-01-10T20:23:06.420Z,26.62
2018-01-10T20:25:34.440Z,27.40
2018-01-10T20:28:04.360Z,24.08
2018-01-10T20:30:34.400Z,26.65
2018-01-10T20:33:07.044Z,25.65
2018-01-10T20:35:41.148Z,25.48
2018-01-10T20:38:11.088Z,25.65
2018-01-10T20:40:39.094Z,22.67
2018-01-10T20:43:09.784Z,27.13
2018-01-10T20:45:37.809Z,25.83
2018-01-10T20:48:05.832Z,27.83
2018-01-10T20:50:34.816Z,23.80
2018-01-10T20:53:02.820Z,28.65
2018-01-10T20:55:31.612Z,25.55
2018-01-10T20:58:01.296Z,27.83
2018-01-10T21:00:30.241Z,29.08
2018-01-10T21:02:59.168Z,28.17
2018-01-10T21:05:27.192Z,28.10
2018-01-10T21:07:55.208Z,25.25
2018-01-10T21:10:28.180Z,26.62
2018-01-10T21:12:56.372Z,30.58
2018-01-10T21:15:26.376Z,27.50
2018-01-10T21:17:54.384Z,26.25
2018-01-10T21:20:23.160Z,30.85
2018-01-10T21:22:51.176Z,33.33
2018-01-10T21:25:20.196Z,32.42
2018-01-10T21:27:51.444Z,32.20
2018-01-10T21:30:19.476Z,32.92
2018-01-10T21:32:49.395Z,27.58
2018-01-10T21:35:19.348Z,28.77
2018-01-10T21:37:49.268Z,33.05
2018-01-10T21:40:17.347Z,29.10
2018-01-10T21:42:49.084Z,29.73
2018-01-10T21:45:30.503Z,32.97
2018-01-10T21:47:59.275Z,36.03
2018-01-10T21:50:27.288Z,32.03
2018-01-10T21:52:56.203Z,37.83
2018-01-10T21:55:26.100Z,34.53
2018-01-10T21:57:58.624Z,32.65
2018-01-10T22:00:27.596Z,34.90
2018-01-10T22:02:59.436Z,31.87
2018-01-10T22:05:27.464Z,32.38
2018-01-10T22:07:56.376Z,28.10
2018-01-10T22:10:31.515Z,26.98
2018-01-10T22:13:02.254Z,32.15
2018-01-10T22:15:33.450Z,32.90
2018-01-10T22:18:10.823Z,30.48
2018-01-10T22:20:46.259Z,35.75
2018-01-10T22:23:15.352Z,32.40
2018-01-10T22:25:48.123Z,30.10
2018-01-10T22:28:16.363Z,29.83
2018-01-10T22:30:49.616Z,30.60
2018-01-10T22:33:18.023Z,39.53
2018-01-10T22:35:46.235Z,33.42
2018-01-10T22:38:14.472Z,28.35
2018-01-10T22:40:44.703Z,38.53
2018-01-10T22:46:18.059Z,32.15
2018-01-10T22:48:57.275Z,35.65
2018-01-10T22:54:27.135Z,30.30
2018-01-10T22:56:55.311Z,31.92
2018-01-10T22:59:26.659Z,35.13
2018-01-10T23:01:57.177Z,33.20
2018-01-10T23:04:29.987Z,32.72
2018-01-10T23:07:15.295Z,35.55
2018-01-10T23:27:58.095Z,31.45
2018-01-10T23:30:26.323Z,36.50
2018-01-10T23:32:54.311Z,37.78
2018-01-10T23:35:28.299Z,37.42
2018-01-10T23:37:56.310Z,45.40
2018-01-10T23:40:37.667Z,30.95
2018-01-10T23:43:06.659Z,91.18
2018-01-10T23:45:36.699Z,70.35
2018-01-10T23:48:04.711Z,82.40
2018-01-10T23:50:39.671Z,133.45
2018-01-10T23:53:11.131Z,119.22
2018-01-10T23:55:43.946Z,108.82
2018-01-10T23:58:13.938Z,203.23
